sensor_id;sensor_type;location;lat;lon;timestamp;pressure;altitude;pressure_sealevel;temperature;humidity
6445;BME280;64733;51.424;5.484;2022-12-07T01:24:40;101631.50;;;17.45;57.23
6445;BME280;64733;51.424;5.484;2022-12-07T01:27:07;101642.63;;;17.42;57.32
6445;BME280;64733;51.424;5.484;2022-12-07T01:29:33;101636.50;;;17.40;57.20
6445;BME280;64733;51.424;5.484;2022-12-07T01:32:00;101637.38;;;17.41;57.09
6445;BME280;64733;51.424;5.484;2022-12-07T01:34:27;101639.06;;;17.42;57.07
6445;BME280;64733;51.424;5.484;2022-12-07T01:36:53;101639.38;;;17.39;57.11
6445;BME280;64733;51.424;5.484;2022-12-07T01:39:20;101638.66;;;17.37;57.10
6445;BME280;64733;51.424;5.484;2022-12-07T01:41:48;101642.25;;;17.37;57.24
6445;BME280;64733;51.424;5.484;2022-12-07T01:44:18;101638.13;;;17.33;57.32
6445;BME280;64733;51.424;5.484;2022-12-07T01:46:47;101642.72;;;17.33;57.15
6445;BME280;64733;51.424;5.484;2022-12-07T01:49:19;101638.28;;;17.32;57.14
6445;BME280;64733;51.424;5.484;2022-12-07T01:51:47;101631.16;;;17.31;57.30
6445;BME280;64733;51.424;5.484;2022-12-07T01:54:15;101628.47;;;17.31;57.24
6445;BME280;64733;51.424;5.484;2022-12-07T01:56:46;101617.41;;;17.15;57.39
6445;BME280;64733;51.424;5.484;2022-12-07T01:59:16;101637.00;;;17.26;57.37
6445;BME280;64733;51.424;5.484;2022-12-07T02:01:44;101641.59;;;17.26;57.24
6445;BME280;64733;51.424;5.484;2022-12-07T02:04:12;101639.03;;;17.24;57.36
6445;BME280;64733;51.424;5.484;2022-12-07T02:06:38;101644.31;;;17.26;57.35
6445;BME280;64733;51.424;5.484;2022-12-07T02:09:05;101636.47;;;17.23;57.18
6445;BME280;64733;51.424;5.484;2022-12-07T02:11:32;101627.50;;;17.22;57.33
6445;BME280;64733;51.424;5.484;2022-12-07T02:13:59;101624.81;;;17.22;57.38
6445;BME280;64733;51.424;5.484;2022-12-07T02:16:32;101624.41;;;17.17;57.37
6445;BME280;64733;51.424;5.484;2022-12-07T02:19:32;101625.94;;;17.20;57.33
6445;BME280;64733;51.424;5.484;2022-12-07T02:22:17;101617.97;;;17.18;57.50
6445;BME280;64733;51.424;5.484;2022-12-07T02:24:53;101621.81;;;17.16;57.38
6445;BME280;64733;51.424;5.484;2022-12-07T02:27:37;101619.25;;;17.14;57.38
6445;BME280;64733;51.424;5.484;2022-12-07T02:30:09;101628.41;;;17.13;57.39
6445;BME280;64733;51.424;5.484;2022-12-07T02:32:44;101633.81;;;17.13;57.31
6445;BME280;64733;51.424;5.484;2022-12-07T02:35:17;101632.09;;;17.12;57.43
6445;BME280;64733;51.424;5.484;2022-12-07T02:37:53;101632.41;;;17.09;57.38
6445;BME280;64733;51.424;5.484;2022-12-07T02:40:25;101630.69;;;17.08;57.45
6445;BME280;64733;51.424;5.484;2022-12-07T02:42:58;101624.44;;;17.08;57.57
6445;BME280;64733;51.424;5.484;2022-12-07T02:45:29;101626.28;;;17.07;57.43
6445;BME280;64733;51.424;5.484;2022-12-07T02:47:58;101626.44;;;17.06;57.49
6445;BME280;64733;51.424;5.484;2022-12-07T02:50:26;101613.75;;;17.06;57.52
6445;BME280;64733;51.424;5.484;2022-12-07T02:52:53;101614.06;;;17.03;57.41
6445;BME280;64733;51.424;5.484;2022-12-07T02:55:22;101619.59;;;17.02;57.55
6445;BME280;64733;51.424;5.484;2022-12-07T02:58:16;101605.66;;;16.97;57.58
6445;BME280;64733;51.424;5.484;2022-12-07T04:12:03;101615.28;;;16.72;57.79
6445;BME280;64733;51.424;5.484;2022-12-07T04:14:30;101615.59;;;16.69;57.65
6445;BME280;64733;51.424;5.484;2022-12-07T04:16:58;101619.31;;;16.68;57.78
6445;BME280;64733;51.424;5.484;2022-12-07T04:19:27;101616.75;;;16.66;57.75
6445;BME280;64733;51.424;5.484;2022-12-07T04:21:54;101617.59;;;16.67;57.75
6445;BME280;64733;51.424;5.484;2022-12-07T04:24:21;101614.88;;;16.67;57.74
6445;BME280;64733;51.424;5.484;2022-12-07T04:26:48;101620.44;;;16.65;58.04
6445;BME280;64733;51.424;5.484;2022-12-07T04:29:16;101616.19;;;16.63;57.98
6445;BME280;64733;51.424;5.484;2022-12-07T04:31:43;101620.75;;;16.62;57.92
6445;BME280;64733;51.424;5.484;2022-12-07T04:34:11;101610.78;;;16.63;57.73
6445;BME280;64733;51.424;5.484;2022-12-07T04:36:38;101604.81;;;16.59;58.04
6445;BME280;64733;51.424;5.484;2022-12-07T04:39:05;101613.75;;;16.60;58.02
6445;BME280;64733;51.424;5.484;2022-12-07T04:41:33;101595.28;;;16.55;57.72
6445;BME280;64733;51.424;5.484;2022-12-07T04:44:01;101596.84;;;16.58;58.03
6445;BME280;64733;51.424;5.484;2022-12-07T04:46:31;101599.66;;;16.56;58.01
6445;BME280;64733;51.424;5.484;2022-12-07T04:48:58;101589.72;;;16.57;57.83
6445;BME280;64733;51.424;5.484;2022-12-07T04:51:27;101587.72;;;16.49;57.89
6445;BME280;64733;51.424;5.484;2022-12-07T04:53:56;101592.72;;;16.54;57.97
6445;BME280;64733;51.424;5.484;2022-12-07T04:56:23;101598.28;;;16.52;57.94
6445;BME280;64733;51.424;5.484;2022-12-07T04:58:51;101594.56;;;16.53;58.14
6445;BME280;64733;51.424;5.484;2022-12-07T05:01:19;101590.16;;;16.52;57.84
6445;BME280;64733;51.424;5.484;2022-12-07T05:03:47;101595.72;;;16.51;58.03
6445;BME280;64733;51.424;5.484;2022-12-07T05:06:14;101599.41;;;16.50;57.96
6445;BME280;64733;51.424;5.484;2022-12-07T05:08:41;101602.13;;;16.50;58.18
6445;BME280;64733;51.424;5.484;2022-12-07T05:11:08;101602.97;;;16.50;58.04
6445;BME280;64733;51.424;5.484;2022-12-07T05:13:56;101604.81;;;16.50;58.27
6445;BME280;64733;51.424;5.484;2022-12-07T05:16:22;101597.41;;;16.52;57.94
6445;BME280;64733;51.424;5.484;2022-12-07T05:18:50;101594.72;;;16.52;58.02
6445;BME280;64733;51.424;5.484;2022-12-07T05:21:18;101601.13;;;16.51;58.35
6445;BME280;64733;51.424;5.484;2022-12-07T05:23:44;101603.69;;;16.52;58.64
6445;BME280;64733;51.424;5.484;2022-12-07T05:26:11;101599.13;;;16.53;58.58
6445;BME280;64733;51.424;5.484;2022-12-07T05:28:38;101586.59;;;16.52;58.98
6445;BME280;64733;51.424;5.484;2022-12-07T05:31:04;101591.84;;;16.53;58.79
6445;BME280;64733;51.424;5.484;2022-12-07T05:33:31;101597.41;;;16.52;58.94
6445;BME280;64733;51.424;5.484;2022-12-07T05:35:59;101590.31;;;16.51;58.99
6445;BME280;64733;51.424;5.484;2022-12-07T05:38:30;101592.31;;;16.49;59.09
6445;BME280;64733;51.424;5.484;2022-12-07T05:41:00;101589.59;;;16.49;58.98
6445;BME280;64733;51.424;5.484;2022-12-07T05:43:27;101592.31;;;16.49;59.11
6445;BME280;64733;51.424;5.484;2022-12-07T05:45:54;101587.06;;;16.47;59.16
6445;BME280;64733;51.424;5.484;2022-12-07T05:48:20;101585.34;;;16.46;58.91
6445;BME280;64733;51.424;5.484;2022-12-07T05:50:47;101594.31;;;16.47;59.19
6445;BME280;64733;51.424;5.484;2022-12-07T05:53:16;101578.19;;;16.45;59.00
6445;BME280;64733;51.424;5.484;2022-12-07T05:55:43;101569.69;;;16.40;59.03
6445;BME280;64733;51.424;5.484;2022-12-07T05:58:10;101573.78;;;16.44;59.09
6445;BME280;64733;51.424;5.484;2022-12-07T06:00:54;101571.50;;;16.40;59.11
6445;BME280;64733;51.424;5.484;2022-12-07T06:03:21;101580.34;;;16.42;59.12
6445;BME280;64733;51.424;5.484;2022-12-07T06:05:48;101570.97;;;16.36;59.18
6445;BME280;64733;51.424;5.484;2022-12-07T06:08:16;101587.59;;;16.41;59.01
6445;BME280;64733;51.424;5.484;2022-12-07T06:10:43;101583.75;;;16.44;59.05
6445;BME280;64733;51.424;5.484;2022-12-07T06:13:09;101579.19;;;16.44;59.09
6445;BME280;64733;51.424;5.484;2022-12-07T06:15:35;101590.84;;;16.45;59.21
6445;BME280;64733;51.424;5.484;2022-12-07T06:18:02;101588.31;;;16.43;59.13
6445;BME280;64733;51.424;5.484;2022-12-07T06:20:29;101596.25;;;16.45;59.13
6445;BME280;64733;51.424;5.484;2022-12-07T06:22:56;101591.00;;;16.43;59.01
6445;BME280;64733;51.424;5.484;2022-12-07T06:25:24;101593.56;;;16.45;59.18
6445;BME280;64733;51.424;5.484;2022-12-07T06:27:51;101596.16;;;16.46;59.21
6445;BME280;64733;51.424;5.484;2022-12-07T06:30:17;101586.91;;;16.49;59.01
6445;BME280;64733;51.424;5.484;2022-12-07T06:32:44;101586.75;;;16.50;58.96
6445;BME280;64733;51.424;5.484;2022-12-07T06:35:11;101590.31;;;16.51;58.99
6445;BME280;64733;51.424;5.484;2022-12-07T06:37:37;101590.31;;;16.51;58.74
6445;BME280;64733;51.424;5.484;2022-12-07T06:40:05;101583.91;;;16.52;58.95
6445;BME280;64733;51.424;5.484;2022-12-07T06:42:34;101589.16;;;16.53;58.87
6445;BME280;64733;51.424;5.484;2022-12-07T06:45:00;101591.31;;;16.50;59.26
6445;BME280;64733;51.424;5.484;2022-12-07T06:47:27;101586.75;;;16.50;59.08
6445;BME280;64733;51.424;5.484;2022-12-07T06:49:53;101596.00;;;16.48;59.33
6445;BME280;64733;51.424;5.484;2022-12-07T06:52:20;101601.13;;;16.51;59.24
6445;BME280;64733;51.424;5.484;2022-12-07T06:54:47;101593.03;;;16.51;59.22
6445;BME280;64733;51.424;5.484;2022-12-07T06:57:13;101594.72;;;16.52;59.18
6445;BME280;64733;51.424;5.484;2022-12-07T06:59:42;101594.41;;;16.55;59.15
6445;BME280;64733;51.424;5.484;2022-12-07T07:48:48;101608.50;;;16.58;59.10
6445;BME280;64733;51.424;5.484;2022-12-07T07:51:16;101621.03;;;16.59;59.02
6445;BME280;64733;51.424;5.484;2022-12-07T07:53:43;101608.34;;;16.60;59.00
6445;BME280;64733;51.424;5.484;2022-12-07T07:56:10;101609.22;;;16.60;59.11
6445;BME280;64733;51.424;5.484;2022-12-07T07:58:36;101619.88;;;16.62;58.96
6445;BME280;64733;51.424;5.484;2022-12-07T08:01:04;101606.34;;;16.62;59.02
6445;BME280;64733;51.424;5.484;2022-12-07T08:03:31;101611.75;;;16.62;59.00
6445;BME280;64733;51.424;5.484;2022-12-07T08:06:01;101608.50;;;16.58;58.98
6445;BME280;64733;51.424;5.484;2022-12-07T08:08:28;101605.53;;;16.61;58.95
6445;BME280;64733;51.424;5.484;2022-12-07T08:10:55;101613.63;;;16.61;58.98
6445;BME280;64733;51.424;5.484;2022-12-07T08:13:25;101619.88;;;16.62;58.89
6445;BME280;64733;51.424;5.484;2022-12-07T08:15:52;101608.34;;;16.60;59.00
6445;BME280;64733;51.424;5.484;2022-12-07T08:18:19;101611.75;;;16.62;59.06
6445;BME280;64733;51.424;5.484;2022-12-07T08:20:46;101613.63;;;16.61;58.88
6445;BME280;64733;51.424;5.484;2022-12-07T08:23:14;101609.66;;;16.56;58.92
6445;BME280;64733;51.424;5.484;2022-12-07T08:25:40;101622.44;;;16.63;58.91
6445;BME280;64733;51.424;5.484;2022-12-07T08:28:07;101616.19;;;16.63;58.97
6445;BME280;64733;51.424;5.484;2022-12-07T08:30:33;101622.44;;;16.63;58.84
6445;BME280;64733;51.424;5.484;2022-12-07T08:33:00;101626.88;;;16.64;58.86
6445;BME280;64733;51.424;5.484;2022-12-07T08:35:27;101639.53;;;16.64;58.93
6445;BME280;64733;51.424;5.484;2022-12-07T08:37:54;101638.66;;;16.63;58.78
6445;BME280;64733;51.424;5.484;2022-12-07T08:40:25;101636.81;;;16.64;58.84
6445;BME280;64733;51.424;5.484;2022-12-07T08:42:51;101642.94;;;16.66;58.98
6445;BME280;64733;51.424;5.484;2022-12-07T08:45:19;101636.69;;;16.65;58.91
6445;BME280;64733;51.424;5.484;2022-12-07T08:47:48;101635.69;;;16.66;59.04
6445;BME280;64733;51.424;5.484;2022-12-07T08:50:17;101628.16;;;16.60;59.01
6445;BME280;64733;51.424;5.484;2022-12-07T08:52:44;101631.81;;;16.69;59.01
6445;BME280;64733;51.424;5.484;2022-12-07T08:55:11;101615.75;;;16.67;59.24
6445;BME280;64733;51.424;5.484;2022-12-07T11:56:30;101504.50;;;16.80;61.88
6445;BME280;64733;51.424;5.484;2022-12-07T11:59:04;101502.91;;;16.77;61.84
6445;BME280;64733;51.424;5.484;2022-12-07T12:01:42;101499.38;;;16.77;61.77
6445;BME280;64733;51.424;5.484;2022-12-07T12:04:23;101505.63;;;16.77;61.73
6445;BME280;64733;51.424;5.484;2022-12-07T12:06:52;101509.34;;;16.76;61.75
6445;BME280;64733;51.424;5.484;2022-12-07T12:09:24;101502.91;;;16.77;61.76
6445;BME280;64733;51.424;5.484;2022-12-07T12:15:18;101518.59;;;16.74;61.49
6445;BME280;64733;51.424;5.484;2022-12-07T12:17:58;101508.25;;;16.69;61.44
6445;BME280;64733;51.424;5.484;2022-12-07T12:20:35;101505.69;;;16.68;61.00
6445;BME280;64733;51.424;5.484;2022-12-07T12:23:05;101503.13;;;16.66;61.00
6445;BME280;64733;51.424;5.484;2022-12-07T12:25:38;101492.44;;;16.65;61.01
6445;BME280;64733;51.424;5.484;2022-12-07T12:28:10;101489.72;;;16.65;60.82
6445;BME280;64733;51.424;5.484;2022-12-07T12:31:04;101482.06;;;16.60;60.53
6445;BME280;64733;51.424;5.484;2022-12-07T12:33:32;101476.50;;;16.62;60.44
6445;BME280;64733;51.424;5.484;2022-12-07T12:36:21;101474.13;;;16.59;60.55
6445;BME280;64733;51.424;5.484;2022-12-07T12:38:51;101471.41;;;16.59;60.59
6445;BME280;64733;51.424;5.484;2022-12-07T12:41:58;101468.72;;;16.59;60.39
6445;BME280;64733;51.424;5.484;2022-12-07T12:48:04;101456.19;;;16.58;60.11
6445;BME280;64733;51.424;5.484;2022-12-07T12:50:32;101458.19;;;16.56;60.08
6445;BME280;64733;51.424;5.484;2022-12-07T12:53:15;101452.09;;;16.54;60.16
6445;BME280;64733;51.424;5.484;2022-12-07T12:58:47;101449.38;;;16.54;60.06
6445;BME280;64733;51.424;5.484;2022-12-07T13:01:44;101453.06;;;16.53;60.04
6445;BME280;64733;51.424;5.484;2022-12-07T13:04:25;101443.41;;;16.50;59.91
6445;BME280;64733;51.424;5.484;2022-12-07T13:06:53;101445.25;;;16.50;59.75
6445;BME280;64733;51.424;5.484;2022-12-07T13:09:23;101443.41;;;16.50;59.70
6445;BME280;64733;51.424;5.484;2022-12-07T13:11:58;101447.09;;;16.49;59.73
6445;BME280;64733;51.424;5.484;2022-12-07T13:14:51;101441.69;;;16.49;59.54
6445;BME280;64733;51.424;5.484;2022-12-07T13:20:41;101426.63;;;16.47;59.47
6445;BME280;64733;51.424;5.484;2022-12-07T13:23:09;101425.78;;;16.46;59.35
6445;BME280;64733;51.424;5.484;2022-12-07T13:25:53;101415.09;;;16.45;59.37
6445;BME280;64733;51.424;5.484;2022-12-07T13:28:22;101425.91;;;16.45;59.38
6445;BME280;64733;51.424;5.484;2022-12-07T13:31:35;101415.94;;;16.45;59.42
6445;BME280;64733;51.424;5.484;2022-12-07T15:17:34;101347.47;;;16.54;60.71
6445;BME280;64733;51.424;5.484;2022-12-07T15:20:01;101340.66;;;16.50;60.92
6445;BME280;64733;51.424;5.484;2022-12-07T15:22:27;101347.47;;;16.54;60.79
6445;BME280;64733;51.424;5.484;2022-12-07T15:24:56;101346.59;;;16.54;61.00
6445;BME280;64733;51.424;5.484;2022-12-07T15:27:23;101353.16;;;16.51;60.90
6445;BME280;64733;51.424;5.484;2022-12-07T15:29:50;101346.06;;;16.50;60.98
6445;BME280;64733;51.424;5.484;2022-12-07T15:32:19;101343.34;;;16.50;60.96
6445;BME280;64733;51.424;5.484;2022-12-07T15:34:47;101343.19;;;16.52;61.17
6445;BME280;64733;51.424;5.484;2022-12-07T15:37:13;101336.94;;;16.51;60.83
6445;BME280;64733;51.424;5.484;2022-12-07T15:39:40;101345.19;;;16.50;61.06
6445;BME280;64733;51.424;5.484;2022-12-07T15:42:07;101341.34;;;16.52;60.93
6445;BME280;64733;51.424;5.484;2022-12-07T15:44:33;101325.13;;;16.43;61.09
6445;BME280;64733;51.424;5.484;2022-12-07T15:47:17;101340.66;;;16.50;60.97
6445;BME280;64733;51.424;5.484;2022-12-07T15:49:44;101343.19;;;16.52;61.20
6445;BME280;64733;51.424;5.484;2022-12-07T15:52:12;101345.75;;;16.53;61.21
6445;BME280;64733;51.424;5.484;2022-12-07T15:54:39;101340.34;;;16.53;61.33
6445;BME280;64733;51.424;5.484;2022-12-07T15:57:06;101337.78;;;16.52;60.84
6445;BME280;64733;51.424;5.484;2022-12-07T15:59:32;101338.81;;;16.51;61.02
6445;BME280;64733;51.424;5.484;2022-12-07T16:01:59;101334.22;;;16.51;61.02
6445;BME280;64733;51.424;5.484;2022-12-07T16:04:27;101325.81;;;16.54;60.87
6445;BME280;64733;51.424;5.484;2022-12-07T16:06:54;101328.75;;;16.61;60.62
6445;BME280;64733;51.424;5.484;2022-12-07T16:09:23;101328.69;;;16.70;60.40
6445;BME280;64733;51.424;5.484;2022-12-07T16:11:49;101333.72;;;16.83;59.82
6445;BME280;64733;51.424;5.484;2022-12-07T16:14:17;101328.91;;;16.95;59.74
6445;BME280;64733;51.424;5.484;2022-12-07T16:16:44;101316.75;;;17.16;59.58
6445;BME280;64733;51.424;5.484;2022-12-07T16:19:11;101321.13;;;17.35;59.50
6445;BME280;64733;51.424;5.484;2022-12-07T16:21:38;101319.94;;;17.55;59.14
6445;BME280;64733;51.424;5.484;2022-12-07T16:24:06;101306.44;;;17.63;59.11
6445;BME280;64733;51.424;5.484;2022-12-07T16:26:34;101313.69;;;17.88;58.41
6445;BME280;64733;51.424;5.484;2022-12-07T16:29:01;101305.81;;;18.03;58.51
6445;BME280;64733;51.424;5.484;2022-12-07T16:31:28;101310.94;;;18.14;58.30
6445;BME280;64733;51.424;5.484;2022-12-07T16:33:56;101303.84;;;18.21;58.15
6445;BME280;64733;51.424;5.484;2022-12-07T16:36:23;101305.56;;;18.38;58.15
6445;BME280;64733;51.424;5.484;2022-12-07T16:38:52;101308.19;;;18.47;57.92
6445;BME280;64733;51.424;5.484;2022-12-07T16:41:19;101306.69;;;18.61;57.71
6445;BME280;64733;51.424;5.484;2022-12-07T16:43:47;101304.00;;;18.69;57.15
6445;BME280;64733;51.424;5.484;2022-12-07T16:46:14;101297.72;;;18.76;57.30
6445;BME280;64733;51.424;5.484;2022-12-07T16:48:41;101298.75;;;18.75;57.62
6445;BME280;64733;51.424;5.484;2022-12-07T16:51:10;101286.69;;;18.62;58.09
6445;BME280;64733;51.424;5.484;2022-12-07T16:53:38;101302.81;;;18.79;58.28
6445;BME280;64733;51.424;5.484;2022-12-07T16:56:09;101278.56;;;18.78;58.24
6445;BME280;64733;51.424;5.484;2022-12-07T16:58:36;101281.28;;;18.70;58.19
6445;BME280;64733;51.424;5.484;2022-12-07T17:01:10;101279.72;;;18.59;57.83
6445;BME280;64733;51.424;5.484;2022-12-07T17:03:37;101280.06;;;18.56;57.77
6445;BME280;64733;51.424;5.484;2022-12-07T17:06:12;101289.25;;;18.63;57.88
6445;BME280;64733;51.424;5.484;2022-12-07T17:08:40;101286.19;;;18.74;58.93
6445;BME280;64733;51.424;5.484;2022-12-07T17:11:11;101286.53;;;18.87;58.34
6445;BME280;64733;51.424;5.484;2022-12-07T17:13:38;101282.81;;;18.88;58.75
6445;BME280;64733;51.424;5.484;2022-12-07T17:16:24;101288.94;;;18.98;58.36
6445;BME280;64733;51.424;5.484;2022-12-07T17:18:51;101291.13;;;18.95;58.56
6445;BME280;64733;51.424;5.484;2022-12-07T17:21:18;101283.84;;;18.87;58.51
6445;BME280;64733;51.424;5.484;2022-12-07T17:23:45;101287.91;;;18.83;58.54
6445;BME280;64733;51.424;5.484;2022-12-07T17:26:14;101273.63;;;18.81;58.72
6445;BME280;64733;51.424;5.484;2022-12-07T17:28:41;101268.56;;;18.78;58.53
6445;BME280;64733;51.424;5.484;2022-12-07T17:31:10;101273.97;;;18.78;59.26
6445;BME280;64733;51.424;5.484;2022-12-07T17:33:39;101273.28;;;18.76;59.27
6445;BME280;64733;51.424;5.484;2022-12-07T17:36:10;101269.25;;;18.72;59.20
6445;BME280;64733;51.424;5.484;2022-12-07T17:38:37;101277.53;;;18.71;59.32
6445;BME280;64733;51.424;5.484;2022-12-07T17:41:09;101265.84;;;18.70;59.45
6445;BME280;64733;51.424;5.484;2022-12-07T17:43:35;101266.03;;;18.69;59.49
6445;BME280;64733;51.424;5.484;2022-12-07T17:46:06;101264.13;;;18.69;59.45
6445;BME280;64733;51.424;5.484;2022-12-07T17:48:32;101256.66;;;18.71;59.25
6445;BME280;64733;51.424;5.484;2022-12-07T17:51:01;101255.16;;;18.69;59.42
6445;BME280;64733;51.424;5.484;2022-12-07T17:53:48;101250.56;;;18.69;59.49
6445;BME280;64733;51.424;5.484;2022-12-07T17:56:15;101245.47;;;18.66;59.40
6445;BME280;64733;51.424;5.484;2022-12-07T17:58:41;101248.84;;;18.60;59.75
6445;BME280;64733;51.424;5.484;2022-12-07T18:01:08;101249.72;;;18.61;59.75
6445;BME280;64733;51.424;5.484;2022-12-07T18:03:35;101240.22;;;18.65;59.55
6445;BME280;64733;51.424;5.484;2022-12-07T18:06:03;101242.78;;;18.66;59.77
6445;BME280;64733;51.424;5.484;2022-12-07T18:08:34;101234.63;;;18.66;59.56
6445;BME280;64733;51.424;5.484;2022-12-07T18:11:01;101238.88;;;18.69;59.74
6445;BME280;64733;51.424;5.484;2022-12-07T18:13:29;101228.34;;;18.66;59.63
6445;BME280;64733;51.424;5.484;2022-12-07T18:16:03;101224.94;;;18.64;59.88
6445;BME280;64733;51.424;5.484;2022-12-07T18:18:30;101227.34;;;18.67;60.07
6445;BME280;64733;51.424;5.484;2022-12-07T18:20:57;101233.97;;;18.72;59.77
6445;BME280;64733;51.424;5.484;2022-12-07T18:23:25;101238.88;;;18.69;59.88
6445;BME280;64733;51.424;5.484;2022-12-07T18:25:52;101228.00;;;18.61;59.69
6445;BME280;64733;51.424;5.484;2022-12-07T18:28:18;101234.28;;;18.69;59.81
6445;BME280;64733;51.424;5.484;2022-12-07T18:30:45;101241.41;;;18.70;59.76
6445;BME280;64733;51.424;5.484;2022-12-07T18:33:15;101232.59;;;18.68;59.96
6445;BME280;64733;51.424;5.484;2022-12-07T18:35:42;101231.56;;;18.69;59.88
6445;BME280;64733;51.424;5.484;2022-12-07T18:38:09;101231.59;;;18.77;59.68
6445;BME280;64733;51.424;5.484;2022-12-07T18:40:38;101227.00;;;18.86;59.42
6445;BME280;64733;51.424;5.484;2022-12-07T18:43:04;101224.28;;;18.86;59.61
6445;BME280;64733;51.424;5.484;2022-12-07T18:45:34;101211.72;;;18.85;59.18
6445;BME280;64733;51.424;5.484;2022-12-07T18:48:01;101218.50;;;18.89;59.39
6445;BME280;64733;51.424;5.484;2022-12-07T18:50:28;101208.50;;;18.89;59.32
6445;BME280;64733;51.424;5.484;2022-12-07T18:52:56;101203.22;;;18.96;59.18
6445;BME280;64733;51.424;5.484;2022-12-07T18:55:23;101212.22;;;18.96;59.57
6445;BME280;64733;51.424;5.484;2022-12-07T18:57:52;101205.09;;;18.95;59.55
6445;BME280;64733;51.424;5.484;2022-12-07T19:00:19;101207.63;;;18.97;59.27
6445;BME280;64733;51.424;5.484;2022-12-07T19:02:47;101212.22;;;18.96;59.68
6445;BME280;64733;51.424;5.484;2022-12-07T19:05:14;101203.59;;;18.93;59.67
6445;BME280;64733;51.424;5.484;2022-12-07T19:07:41;101203.41;;;18.94;59.79
6445;BME280;64733;51.424;5.484;2022-12-07T19:10:08;101208.66;;;18.96;59.83
6445;BME280;64733;51.424;5.484;2022-12-07T19:12:36;101210.34;;;18.97;59.76
6445;BME280;64733;51.424;5.484;2022-12-07T19:15:06;101208.34;;;18.91;59.82
6445;BME280;64733;51.424;5.484;2022-12-07T19:17:33;101197.13;;;18.86;59.82
6445;BME280;64733;51.424;5.484;2022-12-07T19:20:02;101210.53;;;18.87;59.94
6445;BME280;64733;51.424;5.484;2022-12-07T19:22:29;101203.41;;;18.86;60.12
6445;BME280;64733;51.424;5.484;2022-12-07T19:24:56;101201.72;;;18.85;59.90
6445;BME280;64733;51.424;5.484;2022-12-07T19:27:23;101197.81;;;18.88;59.82
6445;BME280;64733;51.424;5.484;2022-12-07T19:29:51;101193.03;;;18.90;59.61
6445;BME280;64733;51.424;5.484;2022-12-07T19:32:19;101198.47;;;18.90;59.83
6445;BME280;64733;51.424;5.484;2022-12-07T19:34:47;101194.94;;;18.89;59.99
6445;BME280;64733;51.424;5.484;2022-12-07T19:37:15;101191.53;;;18.87;59.82
6445;BME280;64733;51.424;5.484;2022-12-07T19:39:42;101189.31;;;18.91;59.85
6445;BME280;64733;51.424;5.484;2022-12-07T19:42:10;101194.06;;;18.97;59.46
6445;BME280;64733;51.424;5.484;2022-12-07T19:44:37;101193.41;;;18.95;59.79
6445;BME280;64733;51.424;5.484;2022-12-07T19:47:04;101198.81;;;19.03;59.68
6445;BME280;64733;51.424;5.484;2022-12-07T19:49:34;101197.78;;;19.12;59.28
6445;BME280;64733;51.424;5.484;2022-12-07T19:52:03;101197.06;;;19.18;59.36
6445;BME280;64733;51.424;5.484;2022-12-07T19:54:31;101192.00;;;19.15;59.44
6445;BME280;64733;51.424;5.484;2022-12-07T19:56:57;101194.34;;;19.18;59.48
6445;BME280;64733;51.424;5.484;2022-12-07T19:59:25;101188.41;;;19.15;59.40
6445;BME280;64733;51.424;5.484;2022-12-07T20:01:52;101189.59;;;19.20;59.60
6445;BME280;64733;51.424;5.484;2022-12-07T20:04:21;101184.03;;;19.14;59.72
6445;BME280;64733;51.424;5.484;2022-12-07T20:06:51;101181.66;;;19.11;59.39
6445;BME280;64733;51.424;5.484;2022-12-07T20:09:19;101181.81;;;19.09;59.21
6445;BME280;64733;51.424;5.484;2022-12-07T20:11:47;101186.41;;;19.08;58.95
6445;BME280;64733;51.424;5.484;2022-12-07T20:14:31;101182.84;;;19.08;58.68
6445;BME280;64733;51.424;5.484;2022-12-07T20:16:58;101184.88;;;19.06;58.84
6445;BME280;64733;51.424;5.484;2022-12-07T20:19:25;101183.69;;;19.08;58.79
6445;BME280;64733;51.424;5.484;2022-12-07T20:21:54;101179.09;;;19.09;58.96
6445;BME280;64733;51.424;5.484;2022-12-07T20:24:22;101171.16;;;18.99;58.80
6445;BME280;64733;51.424;5.484;2022-12-07T20:26:50;101177.59;;;19.06;58.71
6445;BME280;64733;51.424;5.484;2022-12-07T20:29:19;101163.88;;;19.00;58.69
6445;BME280;64733;51.424;5.484;2022-12-07T20:31:47;101169.09;;;19.09;58.68
6445;BME280;64733;51.424;5.484;2022-12-07T20:34:14;101168.09;;;19.11;58.62
6445;BME280;64733;51.424;5.484;2022-12-07T20:36:41;101154.50;;;19.11;58.78
6445;BME280;64733;51.424;5.484;2022-12-07T20:39:09;101153.84;;;19.08;58.84
6445;BME280;64733;51.424;5.484;2022-12-07T20:41:37;101152.63;;;19.11;58.56
6445;BME280;64733;51.424;5.484;2022-12-07T20:44:22;101156.38;;;19.10;58.71
6445;BME280;64733;51.424;5.484;2022-12-07T20:46:49;101159.09;;;19.10;58.72
6445;BME280;64733;51.424;5.484;2022-12-07T20:49:16;101157.56;;;19.07;58.85
6445;BME280;64733;51.424;5.484;2022-12-07T20:51:43;101154.50;;;19.11;58.85
6445;BME280;64733;51.424;5.484;2022-12-07T20:54:11;101153.47;;;19.12;58.71
6445;BME280;64733;51.424;5.484;2022-12-07T20:56:39;101151.44;;;19.14;58.62
6445;BME280;64733;51.424;5.484;2022-12-07T20:59:07;101145.50;;;19.10;58.32
6445;BME280;64733;51.424;5.484;2022-12-07T21:01:34;101141.41;;;19.22;58.16
6445;BME280;64733;51.424;5.484;2022-12-07T21:04:01;101129.00;;;19.28;58.04
6445;BME280;64733;51.424;5.484;2022-12-07T21:06:29;101126.44;;;19.26;58.31
6445;BME280;64733;51.424;5.484;2022-12-07T21:08:57;101132.72;;;19.27;58.04
6445;BME280;64733;51.424;5.484;2022-12-07T21:11:27;101135.44;;;19.27;58.13
6445;BME280;64733;51.424;5.484;2022-12-07T21:13:55;101132.22;;;19.23;58.02
6445;BME280;64733;51.424;5.484;2022-12-07T21:16:24;101141.72;;;19.27;58.11
6445;BME280;64733;51.424;5.484;2022-12-07T21:18:51;101139.69;;;19.29;57.92
6445;BME280;64733;51.424;5.484;2022-12-07T21:21:19;101134.59;;;19.26;58.04
6445;BME280;64733;51.424;5.484;2022-12-07T21:23:48;101145.81;;;19.31;57.80
6445;BME280;64733;51.424;5.484;2022-12-07T21:26:16;101130.66;;;19.29;57.72
6445;BME280;64733;51.424;5.484;2022-12-07T21:28:45;101123.56;;;19.28;57.81